sensor_id;sensor_type;location;lat;lon;timestamp;P1;P2;P0
77692;PMS5003;66984;47.404;18.836;2024-01-06T00:00:44;28.00;26.00;17.00
77692;PMS5003;66984;47.404;18.836;2024-01-06T00:01:53;29.50;27.00;16.00
77692;PMS5003;66984;47.404;18.836;2024-01-06T00:02:56;29.00;27.00;18.00
77692;PMS5003;66984;47.404;18.836;2024-01-06T00:03:59;45.25;37.00;23.50
77692;PMS5003;66984;47.404;18.836;2024-01-06T00:05:02;48.00;39.50;24.00
77692;PMS5003;66984;47.404;18.836;2024-01-06T00:06:06;47.00;38.25;24.00
77692;PMS5003;66984;47.404;18.836;2024-01-06T00:07:09;47.25;39.00;24.00
77692;PMS5003;66984;47.404;18.836;2024-01-06T00:08:12;50.75;41.25;25.00
77692;PMS5003;66984;47.404;18.836;2024-01-06T00:09:14;64.75;60.75;33.50
77692;PMS5003;66984;47.404;18.836;2024-01-06T00:10:18;76.25;70.75;38.00
77692;PMS5003;66984;47.404;18.836;2024-01-06T00:11:21;66.50;61.25;33.00
77692;PMS5003;66984;47.404;18.836;2024-01-06T00:12:25;59.75;51.50;29.00
77692;PMS5003;66984;47.404;18.836;2024-01-06T00:13:28;48.00;39.00;24.00
77692;PMS5003;66984;47.404;18.836;2024-01-06T00:14:30;41.50;35.25;22.00
77692;PMS5003;66984;47.404;18.836;2024-01-06T00:15:36;43.50;36.75;22.00
77692;PMS5003;66984;47.404;18.836;2024-01-06T00:16:40;44.25;37.25;23.00
77692;PMS5003;66984;47.404;18.836;2024-01-06T00:17:42;44.00;36.50;22.00
77692;PMS5003;66984;47.404;18.836;2024-01-06T00:18:46;51.50;40.75;24.75
77692;PMS5003;66984;47.404;18.836;2024-01-06T00:19:50;48.00;38.75;24.00
77692;PMS5003;66984;47.404;18.836;2024-01-06T00:20:53;42.75;34.25;22.00
77692;PMS5003;66984;47.404;18.836;2024-01-06T00:21:56;59.50;53.25;36.25
77692;PMS5003;66984;47.404;18.836;2024-01-06T00:22:59;60.00;52.75;36.50
77692;PMS5003;66984;47.404;18.836;2024-01-06T00:24:02;51.75;42.25;28.00
77692;PMS5003;66984;47.404;18.836;2024-01-06T00:25:05;45.00;36.50;24.50
77692;PMS5003;66984;47.404;18.836;2024-01-06T00:26:09;40.00;33.00;22.00
77692;PMS5003;66984;47.404;18.836;2024-01-06T00:27:12;37.00;31.00;20.25
77692;PMS5003;66984;47.404;18.836;2024-01-06T00:28:16;35.00;29.00;20.00
77692;PMS5003;66984;47.404;18.836;2024-01-06T00:29:27;32.00;28.00;18.50
77692;PMS5003;66984;47.404;18.836;2024-01-06T00:30:30;33.00;28.50;19.00
77692;PMS5003;66984;47.404;18.836;2024-01-06T00:31:33;33.00;27.00;18.00
77692;PMS5003;66984;47.404;18.836;2024-01-06T00:32:38;32.50;27.25;16.50
77692;PMS5003;66984;47.404;18.836;2024-01-06T00:33:44;41.25;33.25;22.00
77692;PMS5003;66984;47.404;18.836;2024-01-06T00:34:47;38.00;32.00;19.00
77692;PMS5003;66984;47.404;18.836;2024-01-06T00:35:50;37.00;31.00;21.00
77692;PMS5003;66984;47.404;18.836;2024-01-06T00:36:55;41.00;34.50;23.25
77692;PMS5003;66984;47.404;18.836;2024-01-06T00:37:58;52.50;42.50;28.25
77692;PMS5003;66984;47.404;18.836;2024-01-06T00:39:02;62.25;57.50;37.75
77692;PMS5003;66984;47.404;18.836;2024-01-06T00:40:06;58.50;49.50;31.50
77692;PMS5003;66984;47.404;18.836;2024-01-06T00:41:13;51.00;41.00;25.75
77692;PMS5003;66984;47.404;18.836;2024-01-06T00:42:16;46.25;37.50;23.25
77692;PMS5003;66984;47.404;18.836;2024-01-06T00:43:19;55.00;43.00;27.25
77692;PMS5003;66984;47.404;18.836;2024-01-06T00:44:22;53.50;42.50;27.50
77692;PMS5003;66984;47.404;18.836;2024-01-06T00:45:25;59.25;51.50;32.50
77692;PMS5003;66984;47.404;18.836;2024-01-06T00:46:28;103.75;97.00;55.75
77692;PMS5003;66984;47.404;18.836;2024-01-06T00:47:31;71.50;68.25;38.00
77692;PMS5003;66984;47.404;18.836;2024-01-06T00:48:34;60.75;54.25;30.75
77692;PMS5003;66984;47.404;18.836;2024-01-06T00:49:37;44.75;36.00;22.25
77692;PMS5003;66984;47.404;18.836;2024-01-06T00:50:40;36.25;29.25;19.00
77692;PMS5003;66984;47.404;18.836;2024-01-06T00:51:44;53.75;42.75;27.00
77692;PMS5003;66984;47.404;18.836;2024-01-06T00:52:47;52.50;42.00;26.75
77692;PMS5003;66984;47.404;18.836;2024-01-06T00:53:49;50.00;39.50;25.00
77692;PMS5003;66984;47.404;18.836;2024-01-06T00:54:52;43.00;36.00;23.00
77692;PMS5003;66984;47.404;18.836;2024-01-06T00:56:11;38.25;32.00;20.50
77692;PMS5003;66984;47.404;18.836;2024-01-06T00:57:15;33.75;28.75;18.75
77692;PMS5003;66984;47.404;18.836;2024-01-06T00:58:18;33.25;28.50;18.50
77692;PMS5003;66984;47.404;18.836;2024-01-06T00:59:21;40.75;34.00;22.00
77692;PMS5003;66984;47.404;18.836;2024-01-06T01:00:24;52.00;42.00;27.00
77692;PMS5003;66984;47.404;18.836;2024-01-06T01:01:27;47.00;37.25;23.50
77692;PMS5003;66984;47.404;18.836;2024-01-06T01:02:29;49.50;39.00;25.00
77692;PMS5003;66984;47.404;18.836;2024-01-06T01:03:35;54.75;45.00;27.50
77692;PMS5003;66984;47.404;18.836;2024-01-06T01:04:38;51.25;41.00;26.00
77692;PMS5003;66984;47.404;18.836;2024-01-06T01:05:41;46.50;37.00;23.00
77692;PMS5003;66984;47.404;18.836;2024-01-06T01:06:44;46.75;38.50;24.00
77692;PMS5003;66984;47.404;18.836;2024-01-06T01:07:47;46.50;38.00;24.00
77692;PMS5003;66984;47.404;18.836;2024-01-06T01:08:50;46.25;37.75;24.00
77692;PMS5003;66984;47.404;18.836;2024-01-06T01:09:53;44.75;37.00;23.00
77692;PMS5003;66984;47.404;18.836;2024-01-06T01:10:56;43.00;35.25;23.00
77692;PMS5003;66984;47.404;18.836;2024-01-06T01:11:59;44.00;36.00;23.00
77692;PMS5003;66984;47.404;18.836;2024-01-06T01:13:02;40.50;33.00;21.00
77692;PMS5003;66984;47.404;18.836;2024-01-06T01:14:05;50.25;40.25;24.50
77692;PMS5003;66984;47.404;18.836;2024-01-06T01:15:08;48.75;39.75;23.75
77692;PMS5003;66984;47.404;18.836;2024-01-06T01:16:11;42.00;34.50;22.00
77692;PMS5003;66984;47.404;18.836;2024-01-06T01:17:14;37.00;31.00;20.00
77692;PMS5003;66984;47.404;18.836;2024-01-06T01:18:17;34.00;29.00;19.00
77692;PMS5003;66984;47.404;18.836;2024-01-06T01:19:22;37.00;31.00;20.75
77692;PMS5003;66984;47.404;18.836;2024-01-06T01:20:26;46.50;37.75;24.00
77692;PMS5003;66984;47.404;18.836;2024-01-06T01:21:31;48.00;39.00;24.25
77692;PMS5003;66984;47.404;18.836;2024-01-06T01:22:34;40.50;33.50;21.75
77692;PMS5003;66984;47.404;18.836;2024-01-06T01:23:37;34.00;29.00;19.00
77692;PMS5003;66984;47.404;18.836;2024-01-06T01:24:40;37.00;31.25;20.50
77692;PMS5003;66984;47.404;18.836;2024-01-06T01:25:44;35.25;29.25;19.00
77692;PMS5003;66984;47.404;18.836;2024-01-06T01:26:46;34.75;28.00;19.00
77692;PMS5003;66984;47.404;18.836;2024-01-06T01:27:50;42.00;33.00;20.50
77692;PMS5003;66984;47.404;18.836;2024-01-06T01:29:12;49.00;39.00;23.00
77692;PMS5003;66984;47.404;18.836;2024-01-06T01:30:15;42.50;36.00;22.25
77692;PMS5003;66984;47.404;18.836;2024-01-06T01:31:19;40.00;33.00;21.00
77692;PMS5003;66984;47.404;18.836;2024-01-06T01:32:22;45.25;36.50;23.00
77692;PMS5003;66984;47.404;18.836;2024-01-06T01:33:25;42.50;35.50;23.00
77692;PMS5003;66984;47.404;18.836;2024-01-06T01:34:28;41.50;34.00;22.00
77692;PMS5003;66984;47.404;18.836;2024-01-06T01:35:31;38.25;33.00;21.00
77692;PMS5003;66984;47.404;18.836;2024-01-06T01:36:34;37.00;32.00;21.00
77692;PMS5003;66984;47.404;18.836;2024-01-06T01:37:38;37.00;32.00;20.75
77692;PMS5003;66984;47.404;18.836;2024-01-06T01:38:42;38.00;32.50;22.00
77692;PMS5003;66984;47.404;18.836;2024-01-06T01:39:49;38.00;32.00;21.00
77692;PMS5003;66984;47.404;18.836;2024-01-06T01:40:51;38.50;31.50;20.50
77692;PMS5003;66984;47.404;18.836;2024-01-06T01:41:54;44.00;35.50;22.50
77692;PMS5003;66984;47.404;18.836;2024-01-06T01:42:57;42.25;35.00;22.25
77692;PMS5003;66984;47.404;18.836;2024-01-06T01:44:00;38.00;32.00;21.00
77692;PMS5003;66984;47.404;18.836;2024-01-06T01:45:03;36.50;31.00;19.00
77692;PMS5003;66984;47.404;18.836;2024-01-06T01:46:07;33.00;29.00;19.00
77692;PMS5003;66984;47.404;18.836;2024-01-06T01:47:10;36.50;29.00;19.00
77692;PMS5003;66984;47.404;18.836;2024-01-06T01:48:13;36.50;29.75;19.00
77692;PMS5003;66984;47.404;18.836;2024-01-06T01:49:19;34.00;29.00;19.00
77692;PMS5003;66984;47.404;18.836;2024-01-06T01:50:23;36.25;31.00;19.00
77692;PMS5003;66984;47.404;18.836;2024-01-06T01:51:31;39.50;31.50;19.25
77692;PMS5003;66984;47.404;18.836;2024-01-06T01:52:36;40.75;34.00;22.00
77692;PMS5003;66984;47.404;18.836;2024-01-06T01:53:40;41.75;34.50;21.75
77692;PMS5003;66984;47.404;18.836;2024-01-06T01:54:47;45.00;36.00;22.25
77692;PMS5003;66984;47.404;18.836;2024-01-06T01:55:50;40.25;33.00;21.00
77692;PMS5003;66984;47.404;18.836;2024-01-06T01:56:54;37.00;31.50;21.00
77692;PMS5003;66984;47.404;18.836;2024-01-06T01:57:58;40.50;32.50;22.00
77692;PMS5003;66984;47.404;18.836;2024-01-06T01:59:09;43.75;35.50;22.25
77692;PMS5003;66984;47.404;18.836;2024-01-06T02:00:14;45.00;36.00;23.00
77692;PMS5003;66984;47.404;18.836;2024-01-06T02:01:18;47.75;37.00;23.00
77692;PMS5003;66984;47.404;18.836;2024-01-06T02:02:21;42.75;34.50;22.25
77692;PMS5003;66984;47.404;18.836;2024-01-06T02:03:25;41.00;33.00;23.00
77692;PMS5003;66984;47.404;18.836;2024-01-06T02:04:48;71.75;67.25;40.50
77692;PMS5003;66984;47.404;18.836;2024-01-06T02:05:51;92.25;87.50;53.75
77692;PMS5003;66984;47.404;18.836;2024-01-06T02:06:54;59.50;51.50;32.50
77692;PMS5003;66984;47.404;18.836;2024-01-06T02:07:57;52.00;42.00;27.50
77692;PMS5003;66984;47.404;18.836;2024-01-06T02:09:00;44.00;36.75;24.00
77692;PMS5003;66984;47.404;18.836;2024-01-06T02:10:03;37.00;32.00;21.00
77692;PMS5003;66984;47.404;18.836;2024-01-06T02:11:06;38.00;31.00;20.00
77692;PMS5003;66984;47.404;18.836;2024-01-06T02:12:09;35.00;30.00;19.00
77692;PMS5003;66984;47.404;18.836;2024-01-06T02:13:12;36.50;29.00;18.00
77692;PMS5003;66984;47.404;18.836;2024-01-06T02:14:15;42.50;36.00;23.25
77692;PMS5003;66984;47.404;18.836;2024-01-06T02:15:20;53.75;43.50;28.00
77692;PMS5003;66984;47.404;18.836;2024-01-06T02:16:24;49.50;40.25;26.25
77692;PMS5003;66984;47.404;18.836;2024-01-06T02:17:26;42.00;35.00;23.00
77692;PMS5003;66984;47.404;18.836;2024-01-06T02:18:30;38.00;31.25;20.00
77692;PMS5003;66984;47.404;18.836;2024-01-06T02:19:33;32.00;28.00;19.00
77692;PMS5003;66984;47.404;18.836;2024-01-06T02:20:36;32.00;28.00;18.00
77692;PMS5003;66984;47.404;18.836;2024-01-06T02:21:43;34.00;29.00;18.00
77692;PMS5003;66984;47.404;18.836;2024-01-06T02:22:46;34.00;29.00;18.00
77692;PMS5003;66984;47.404;18.836;2024-01-06T02:23:52;33.75;28.00;18.00
77692;PMS5003;66984;47.404;18.836;2024-01-06T02:24:55;32.50;29.00;18.50
77692;PMS5003;66984;47.404;18.836;2024-01-06T02:25:58;33.00;28.00;18.00
77692;PMS5003;66984;47.404;18.836;2024-01-06T02:27:01;32.75;28.00;18.00
77692;PMS5003;66984;47.404;18.836;2024-01-06T02:28:03;34.75;28.00;18.00
77692;PMS5003;66984;47.404;18.836;2024-01-06T02:29:06;34.75;27.50;18.00
77692;PMS5003;66984;47.404;18.836;2024-01-06T02:30:10;32.00;28.00;18.00
77692;PMS5003;66984;47.404;18.836;2024-01-06T02:31:13;34.50;29.00;18.00
77692;PMS5003;66984;47.404;18.836;2024-01-06T02:32:16;35.50;30.00;18.00
77692;PMS5003;66984;47.404;18.836;2024-01-06T02:33:19;36.50;29.00;18.00
77692;PMS5003;66984;47.404;18.836;2024-01-06T02:34:22;36.50;29.00;18.00
77692;PMS5003;66984;47.404;18.836;2024-01-06T02:35:36;34.00;29.00;18.00
77692;PMS5003;66984;47.404;18.836;2024-01-06T02:36:39;36.00;30.75;18.75
77692;PMS5003;66984;47.404;18.836;2024-01-06T02:37:59;34.50;30.00;18.00
77692;PMS5003;66984;47.404;18.836;2024-01-06T02:39:04;34.00;29.00;18.00
77692;PMS5003;66984;47.404;18.836;2024-01-06T02:40:07;43.00;35.75;22.25
77692;PMS5003;66984;47.404;18.836;2024-01-06T02:41:11;40.00;32.75;21.00
77692;PMS5003;66984;47.404;18.836;2024-01-06T02:42:14;41.25;33.00;22.00
77692;PMS5003;66984;47.404;18.836;2024-01-06T02:43:17;37.50;31.25;21.00
77692;PMS5003;66984;47.404;18.836;2024-01-06T02:44:20;36.50;31.00;19.00
77692;PMS5003;66984;47.404;18.836;2024-01-06T02:45:23;35.00;29.75;18.50
77692;PMS5003;66984;47.404;18.836;2024-01-06T02:46:25;36.00;30.25;19.00
77692;PMS5003;66984;47.404;18.836;2024-01-06T02:47:28;35.50;28.50;18.00
77692;PMS5003;66984;47.404;18.836;2024-01-06T02:48:31;35.00;29.00;18.00
77692;PMS5003;66984;47.404;18.836;2024-01-06T02:49:34;33.00;28.50;18.00
77692;PMS5003;66984;47.404;18.836;2024-01-06T02:50:37;34.50;29.00;18.00
77692;PMS5003;66984;47.404;18.836;2024-01-06T02:51:40;35.00;29.00;18.00
77692;PMS5003;66984;47.404;18.836;2024-01-06T02:52:44;34.25;28.25;18.00
77692;PMS5003;66984;47.404;18.836;2024-01-06T02:53:47;35.50;29.00;19.00
77692;PMS5003;66984;47.404;18.836;2024-01-06T02:54:50;32.25;28.00;18.00
77692;PMS5003;66984;47.404;18.836;2024-01-06T02:55:53;33.50;28.00;19.00
77692;PMS5003;66984;47.404;18.836;2024-01-06T02:56:56;33.00;28.00;18.00
77692;PMS5003;66984;47.404;18.836;2024-01-06T02:57:59;33.00;28.00;19.00
77692;PMS5003;66984;47.404;18.836;2024-01-06T02:59:02;35.50;28.75;18.75
77692;PMS5003;66984;47.404;18.836;2024-01-06T03:00:05;36.50;29.00;19.00
77692;PMS5003;66984;47.404;18.836;2024-01-06T03:01:10;36.00;29.25;19.00
77692;PMS5003;66984;47.404;18.836;2024-01-06T03:02:14;33.50;29.00;18.00
77692;PMS5003;66984;47.404;18.836;2024-01-06T03:03:16;35.50;29.00;18.00
77692;PMS5003;66984;47.404;18.836;2024-01-06T03:04:19;34.50;30.00;18.75
77692;PMS5003;66984;47.404;18.836;2024-01-06T03:05:22;34.00;28.25;18.00
77692;PMS5003;66984;47.404;18.836;2024-01-06T03:06:26;36.50;29.00;18.00
77692;PMS5003;66984;47.404;18.836;2024-01-06T03:07:29;33.25;29.00;18.00
77692;PMS5003;66984;47.404;18.836;2024-01-06T03:08:32;31.25;28.00;18.00
77692;PMS5003;66984;47.404;18.836;2024-01-06T03:09:37;31.50;27.25;18.00
77692;PMS5003;66984;47.404;18.836;2024-01-06T03:10:41;34.50;28.00;18.00
77692;PMS5003;66984;47.404;18.836;2024-01-06T03:11:44;32.25;28.00;17.50
77692;PMS5003;66984;47.404;18.836;2024-01-06T03:12:49;31.00;27.00;17.00
77692;PMS5003;66984;47.404;18.836;2024-01-06T03:13:52;32.25;28.00;17.50
77692;PMS5003;66984;47.404;18.836;2024-01-06T03:14:55;33.00;28.00;18.00
77692;PMS5003;66984;47.404;18.836;2024-01-06T03:16:01;35.25;29.00;18.00
77692;PMS5003;66984;47.404;18.836;2024-01-06T03:17:06;34.00;29.00;18.00
77692;PMS5003;66984;47.404;18.836;2024-01-06T03:18:09;32.00;28.75;18.75
77692;PMS5003;66984;47.404;18.836;2024-01-06T03:19:12;31.00;27.00;18.00
77692;PMS5003;66984;47.404;18.836;2024-01-06T03:20:16;30.75;27.75;17.50
77692;PMS5003;66984;47.404;18.836;2024-01-06T03:21:20;32.00;28.00;18.75
77692;PMS5003;66984;47.404;18.836;2024-01-06T03:22:23;31.00;28.00;19.00
77692;PMS5003;66984;47.404;18.836;2024-01-06T03:23:26;31.00;27.50;19.00
77692;PMS5003;66984;47.404;18.836;2024-01-06T03:24:28;33.25;28.00;18.00
77692;PMS5003;66984;47.404;18.836;2024-01-06T03:25:51;31.75;28.00;17.00
77692;PMS5003;66984;47.404;18.836;2024-01-06T03:26:54;34.50;28.75;18.00
77692;PMS5003;66984;47.404;18.836;2024-01-06T03:27:57;30.00;26.50;18.00
77692;PMS5003;66984;47.404;18.836;2024-01-06T03:29:00;30.50;27.00;18.00
77692;PMS5003;66984;47.404;18.836;2024-01-06T03:30:05;31.75;27.50;18.00
77692;PMS5003;66984;47.404;18.836;2024-01-06T03:31:08;33.75;27.75;17.50
77692;PMS5003;66984;47.404;18.836;2024-01-06T03:32:11;31.00;26.50;17.50
77692;PMS5003;66984;47.404;18.836;2024-01-06T03:33:14;30.25;27.00;18.00
77692;PMS5003;66984;47.404;18.836;2024-01-06T03:34:20;32.00;28.00;18.00
77692;PMS5003;66984;47.404;18.836;2024-01-06T03:35:23;32.00;28.00;17.00
77692;PMS5003;66984;47.404;18.836;2024-01-06T03:36:26;37.75;31.25;18.00
77692;PMS5003;66984;47.404;18.836;2024-01-06T03:37:29;36.00;31.00;19.00
77692;PMS5003;66984;47.404;18.836;2024-01-06T03:38:32;36.25;30.50;19.00
77692;PMS5003;66984;47.404;18.836;2024-01-06T03:39:35;39.75;32.00;21.00
77692;PMS5003;66984;47.404;18.836;2024-01-06T03:40:38;40.00;32.00;21.75
77692;PMS5003;66984;47.404;18.836;2024-01-06T03:41:41;40.00;33.00;21.75
77692;PMS5003;66984;47.404;18.836;2024-01-06T03:42:44;40.00;33.00;22.00
77692;PMS5003;66984;47.404;18.836;2024-01-06T03:43:47;42.00;35.00;22.50
77692;PMS5003;66984;47.404;18.836;2024-01-06T03:44:50;40.50;33.75;22.00
77692;PMS5003;66984;47.404;18.836;2024-01-06T03:45:52;39.25;32.00;21.75
77692;PMS5003;66984;47.404;18.836;2024-01-06T03:46:58;36.75;31.00;19.00
77692;PMS5003;66984;47.404;18.836;2024-01-06T03:48:00;40.00;32.50;21.00
77692;PMS5003;66984;47.404;18.836;2024-01-06T03:49:03;37.25;31.50;21.00
77692;PMS5003;66984;47.404;18.836;2024-01-06T03:50:06;36.00;30.00;20.50
77692;PMS5003;66984;47.404;18.836;2024-01-06T03:51:10;34.00;28.75;20.00
77692;PMS5003;66984;47.404;18.836;2024-01-06T03:52:13;31.50;27.50;19.00
77692;PMS5003;66984;47.404;18.836;2024-01-06T03:53:16;31.50;27.50;18.00
77692;PMS5003;66984;47.404;18.836;2024-01-06T03:54:23;32.00;28.00;18.00
77692;PMS5003;66984;47.404;18.836;2024-01-06T03:55:26;32.00;28.00;18.00
77692;PMS5003;66984;47.404;18.836;2024-01-06T03:56:30;30.00;27.50;18.00
77692;PMS5003;66984;47.404;18.836;2024-01-06T03:57:33;31.25;27.00;18.00
77692;PMS5003;66984;47.404;18.836;2024-01-06T03:58:41;33.75;27.00;18.00
77692;PMS5003;66984;47.404;18.836;2024-01-06T04:00:04;31.00;27.00;18.00
77692;PMS5003;66984;47.404;18.836;2024-01-06T04:01:07;31.25;28.00;18.00
77692;PMS5003;66984;47.404;18.836;2024-01-06T04:02:10;35.00;29.00;18.00
77692;PMS5003;66984;47.404;18.836;2024-01-06T04:03:13;33.00;28.50;19.00
77692;PMS5003;66984;47.404;18.836;2024-01-06T04:04:16;32.75;29.00;18.00
77692;PMS5003;66984;47.404;18.836;2024-01-06T04:05:19;31.50;28.00;18.00
77692;PMS5003;66984;47.404;18.836;2024-01-06T04:06:22;33.25;29.00;18.00
77692;PMS5003;66984;47.404;18.836;2024-01-06T04:07:24;36.00;29.00;19.00
77692;PMS5003;66984;47.404;18.836;2024-01-06T04:08:27;36.00;29.00;18.00
77692;PMS5003;66984;47.404;18.836;2024-01-06T04:09:30;34.25;29.00;18.00
77692;PMS5003;66984;47.404;18.836;2024-01-06T04:10:33;35.00;28.00;18.00
77692;PMS5003;66984;47.404;18.836;2024-01-06T04:11:38;34.50;29.00;18.25
77692;PMS5003;66984;47.404;18.836;2024-01-06T04:12:41;35.75;29.00;18.00
77692;PMS5003;66984;47.404;18.836;2024-01-06T04:13:44;34.25;29.00;18.00
77692;PMS5003;66984;47.404;18.836;2024-01-06T04:14:49;33.50;29.50;18.00
77692;PMS5003;66984;47.404;18.836;2024-01-06T04:15:52;33.00;28.25;18.00
77692;PMS5003;66984;47.404;18.836;2024-01-06T04:16:55;36.00;30.00;18.00
77692;PMS5003;66984;47.404;18.836;2024-01-06T04:18:01;34.50;28.00;18.00
77692;PMS5003;66984;47.404;18.836;2024-01-06T04:19:16;32.00;27.00;18.00
77692;PMS5003;66984;47.404;18.836;2024-01-06T04:20:19;34.00;28.50;18.00
77692;PMS5003;66984;47.404;18.836;2024-01-06T04:21:22;33.00;28.00;18.00
77692;PMS5003;66984;47.404;18.836;2024-01-06T04:22:25;32.25;28.00;18.00
77692;PMS5003;66984;47.404;18.836;2024-01-06T04:23:28;31.25;28.00;18.00
77692;PMS5003;66984;47.404;18.836;2024-01-06T04:24:31;32.50;28.00;18.00
77692;PMS5003;66984;47.404;18.836;2024-01-06T04:25:36;32.00;27.50;18.50
77692;PMS5003;66984;47.404;18.836;2024-01-06T04:26:39;31.25;28.00;18.00
77692;PMS5003;66984;47.404;18.836;2024-01-06T04:27:43;31.00;27.00;18.00
77692;PMS5003;66984;47.404;18.836;2024-01-06T04:28:47;33.00;29.00;17.50
77692;PMS5003;66984;47.404;18.836;2024-01-06T04:29:50;31.50;28.00;18.00
77692;PMS5003;66984;47.404;18.836;2024-01-06T04:30:55;30.50;26.50;17.50
77692;PMS5003;66984;47.404;18.836;2024-01-06T04:31:58;34.25;29.00;17.50
77692;PMS5003;66984;47.404;18.836;2024-01-06T04:33:01;33.75;28.00;17.50
77692;PMS5003;66984;47.404;18.836;2024-01-06T04:34:04;34.00;29.00;18.00
77692;PMS5003;66984;47.404;18.836;2024-01-06T04:35:07;35.25;29.00;17.50
77692;PMS5003;66984;47.404;18.836;2024-01-06T04:36:10;34.00;28.00;17.50
77692;PMS5003;66984;47.404;18.836;2024-01-06T04:37:13;33.00;28.00;17.50
77692;PMS5003;66984;47.404;18.836;2024-01-06T04:38:17;32.75;28.00;17.50
77692;PMS5003;66984;47.404;18.836;2024-01-06T04:39:19;32.00;28.00;18.00
77692;PMS5003;66984;47.404;18.836;2024-01-06T04:40:22;33.25;29.00;18.00
77692;PMS5003;66984;47.404;18.836;2024-01-06T04:41:25;33.00;28.00;18.00
77692;PMS5003;66984;47.404;18.836;2024-01-06T04:42:28;33.00;28.00;18.00
77692;PMS5003;66984;47.404;18.836;2024-01-06T04:43:31;32.00;27.00;17.50
77692;PMS5003;66984;47.404;18.836;2024-01-06T04:44:34;33.00;27.75;17.00
77692;PMS5003;66984;47.404;18.836;2024-01-06T04:45:36;31.00;26.00;17.00
77692;PMS5003;66984;47.404;18.836;2024-01-06T04:46:40;34.25;28.00;17.00
77692;PMS5003;66984;47.404;18.836;2024-01-06T04:47:43;34.50;28.50;18.00
77692;PMS5003;66984;47.404;18.836;2024-01-06T04:48:46;32.00;27.75;17.75
77692;PMS5003;66984;47.404;18.836;2024-01-06T04:49:50;33.50;28.00;18.00
77692;PMS5003;66984;47.404;18.836;2024-01-06T04:50:53;34.75;27.50;17.00
77692;PMS5003;66984;47.404;18.836;2024-01-06T04:51:56;35.00;28.75;17.75
77692;PMS5003;66984;47.404;18.836;2024-01-06T04:52:58;34.00;29.00;18.00
77692;PMS5003;66984;47.404;18.836;2024-01-06T04:54:01;34.00;29.00;18.00
77692;PMS5003;66984;47.404;18.836;2024-01-06T04:55:04;33.25;29.00;18.00
77692;PMS5003;66984;47.404;18.836;2024-01-06T04:56:07;35.75;30.50;19.00
77692;PMS5003;66984;47.404;18.836;2024-01-06T04:57:30;36.00;30.00;18.00
77692;PMS5003;66984;47.404;18.836;2024-01-06T04:58:33;34.00;29.00;18.00
77692;PMS5003;66984;47.404;18.836;2024-01-06T04:59:37;33.25;28.75;18.00
77692;PMS5003;66984;47.404;18.836;2024-01-06T05:00:40;35.00;30.50;18.00
77692;PMS5003;66984;47.404;18.836;2024-01-06T05:01:43;36.00;30.50;18.00
77692;PMS5003;66984;47.404;18.836;2024-01-06T05:02:46;34.50;30.00;19.00
77692;PMS5003;66984;47.404;18.836;2024-01-06T05:03:49;34.25;29.25;18.00
77692;PMS5003;66984;47.404;18.836;2024-01-06T05:04:52;35.50;30.00;18.00
77692;PMS5003;66984;47.404;18.836;2024-01-06T05:05:54;34.50;29.00;18.00
77692;PMS5003;66984;47.404;18.836;2024-01-06T05:07:00;33.00;28.50;17.75
77692;PMS5003;66984;47.404;18.836;2024-01-06T05:08:03;34.00;29.00;19.00
77692;PMS5003;66984;47.404;18.836;2024-01-06T05:09:06;34.50;29.00;19.00
77692;PMS5003;66984;47.404;18.836;2024-01-06T05:10:09;34.00;29.00;19.00
77692;PMS5003;66984;47.404;18.836;2024-01-06T05:11:12;33.75;28.75;18.25
77692;PMS5003;66984;47.404;18.836;2024-01-06T05:12:15;38.00;30.00;19.00
77692;PMS5003;66984;47.404;18.836;2024-01-06T05:13:18;35.25;30.00;18.00
77692;PMS5003;66984;47.404;18.836;2024-01-06T05:14:21;35.00;29.00;18.00
77692;PMS5003;66984;47.404;18.836;2024-01-06T05:15:24;33.00;29.00;18.00
77692;PMS5003;66984;47.404;18.836;2024-01-06T05:16:27;35.00;29.00;18.00
77692;PMS5003;66984;47.404;18.836;2024-01-06T05:17:30;36.00;30.00;18.00
77692;PMS5003;66984;47.404;18.836;2024-01-06T05:18:33;34.50;30.25;19.00
77692;PMS5003;66984;47.404;18.836;2024-01-06T05:19:36;35.00;29.25;19.00
77692;PMS5003;66984;47.404;18.836;2024-01-06T05:20:39;34.00;29.00;19.00
77692;PMS5003;66984;47.404;18.836;2024-01-06T05:21:43;33.00;28.00;19.00
77692;PMS5003;66984;47.404;18.836;2024-01-06T05:22:46;34.50;28.50;19.00
77692;PMS5003;66984;47.404;18.836;2024-01-06T05:23:49;34.50;28.00;19.00
77692;PMS5003;66984;47.404;18.836;2024-01-06T05:24:51;33.25;28.25;19.00
77692;PMS5003;66984;47.404;18.836;2024-01-06T05:25:55;34.50;29.00;18.00
77692;PMS5003;66984;47.404;18.836;2024-01-06T05:26:58;35.00;29.00;18.00
77692;PMS5003;66984;47.404;18.836;2024-01-06T05:28:01;32.25;28.75;18.00
77692;PMS5003;66984;47.404;18.836;2024-01-06T05:29:04;36.00;30.00;19.00
77692;PMS5003;66984;47.404;18.836;2024-01-06T05:30:07;36.00;31.00;18.00
77692;PMS5003;66984;47.404;18.836;2024-01-06T05:31:11;35.50;29.00;18.50
77692;PMS5003;66984;47.404;18.836;2024-01-06T05:32:13;35.50;28.00;18.00
77692;PMS5003;66984;47.404;18.836;2024-01-06T05:33:16;34.00;28.00;18.00
77692;PMS5003;66984;47.404;18.836;2024-01-06T05:34:19;33.75;28.75;18.00
77692;PMS5003;66984;47.404;18.836;2024-01-06T05:35:22;34.00;29.00;18.00
77692;PMS5003;66984;47.404;18.836;2024-01-06T05:36:25;32.00;29.00;19.00
77692;PMS5003;66984;47.404;18.836;2024-01-06T05:37:28;35.00;31.00;18.00
77692;PMS5003;66984;47.404;18.836;2024-01-06T05:38:31;35.25;30.50;18.25
77692;PMS5003;66984;47.404;18.836;2024-01-06T05:39:34;35.00;31.00;18.00
77692;PMS5003;66984;47.404;18.836;2024-01-06T05:40:36;34.00;29.00;18.00
77692;PMS5003;66984;47.404;18.836;2024-01-06T05:41:40;35.00;29.00;18.00
77692;PMS5003;66984;47.404;18.836;2024-01-06T05:42:43;35.00;28.75;17.50
77692;PMS5003;66984;47.404;18.836;2024-01-06T05:43:46;36.00;31.00;18.00
77692;PMS5003;66984;47.404;18.836;2024-01-06T05:44:51;35.00;29.00;18.00
77692;PMS5003;66984;47.404;18.836;2024-01-06T05:45:54;33.00;29.00;18.00
77692;PMS5003;66984;47.404;18.836;2024-01-06T05:46:57;34.75;29.50;17.50
77692;PMS5003;66984;47.404;18.836;2024-01-06T05:48:00;35.50;29.50;18.00
77692;PMS5003;66984;47.404;18.836;2024-01-06T05:49:03;36.00;31.00;18.00
77692;PMS5003;66984;47.404;18.836;2024-01-06T05:50:07;36.00;31.00;19.00
77692;PMS5003;66984;47.404;18.836;2024-01-06T05:51:12;33.00;29.00;18.00
77692;PMS5003;66984;47.404;18.836;2024-01-06T05:52:15;33.25;28.00;18.00
77692;PMS5003;66984;47.404;18.836;2024-01-06T05:53:18;35.00;29.00;18.00